Pagrindinis puslapis
METAR-TAF:

METAR-TAF

Oro uostai :

Okeechobee, Florida, Jungtinės Amerikos Valstijos

platuma: 27-15-58N, ilguma: 080-51-04W, Aukštis: 10 m

Dabartinis oras

Ataskaita buvo paskelbta 11 minutes, ne 17:35 UTC
Vėjas 6 kt iš Vakarų/Šiaurės Vakarų
Temperatūra 30°C
Drėgmė 59%
Slėgis 1013 hPa
Matomumas: 16.1 km
Išsisklaidę debesys ne aukštis 3600 ft
Su prošvaistėmis ne aukštis 4500 ft

METAR: KOBE 171735Z AUTO 30006KT 10SM SCT036 BKN045 30/21 A2992 RMK AO2

Laikas: 13:46 (17:46 UTC)


TAF: trūkstamas

Orai ataskaitas ir orų prognozės (METAR, TAF).

turimą stotys yra geltonos ir raudonos taškus žemėlapyje.

Perkelti pele per norėdami pamatyti stoties vardą.

Tada spustelėkite, norėdami matyti oro stebėjimo ir prognozės.

Norėdami pakeisti žemėlapį: spustelėkite ant žalios mygtukų su juodo kryžiaus žemyn,; žalią mygtuką su brūkšneliu, jei norite nutolinti; arba žalių rodyklių gretimoms žemėlapius.


METAR-TAF: